createdAt,value
2023-12-16T00:00:38.882Z,7.38
2023-12-16T00:01:42.352Z,7.38
2023-12-16T00:02:38.774Z,7.34
2023-12-16T00:03:38.870Z,7.35
2023-12-16T00:04:38.810Z,7.37
2023-12-16T00:05:38.785Z,7.35
2023-12-16T00:06:38.741Z,7.35
2023-12-16T00:07:38.995Z,7.34
2023-12-16T00:08:38.783Z,7.32
2023-12-16T00:09:38.730Z,7.31
2023-12-16T00:10:38.672Z,7.31
2023-12-16T00:11:38.738Z,7.31
2023-12-16T00:12:38.730Z,7.31
2023-12-16T00:13:38.732Z,7.32
2023-12-16T00:14:38.671Z,7.27
2023-12-16T00:15:38.647Z,7.27
2023-12-16T00:16:38.585Z,7.31
2023-12-16T00:17:39.158Z,7.31
2023-12-16T00:18:38.724Z,7.29
2023-12-16T00:19:38.692Z,7.29
2023-12-16T00:20:38.540Z,7.27
2023-12-16T00:21:38.566Z,7.26
2023-12-16T00:22:38.545Z,7.24
2023-12-16T00:23:38.581Z,7.23
2023-12-16T00:24:38.501Z,7.22
2023-12-16T00:25:38.509Z,7.23
2023-12-16T00:26:38.462Z,7.19
2023-12-16T00:27:38.730Z,7.17
2023-12-16T00:28:38.493Z,7.17
2023-12-16T00:29:38.473Z,7.19
2023-12-16T00:30:38.462Z,7.17
2023-12-16T00:31:38.462Z,7.17
2023-12-16T00:32:38.447Z,7.19
2023-12-16T00:33:38.434Z,7.17
2023-12-16T00:34:38.477Z,7.17
2023-12-16T00:35:38.429Z,7.17
2023-12-16T00:36:38.425Z,7.17
2023-12-16T00:37:38.870Z,7.19
2023-12-16T00:38:38.343Z,7.19
2023-12-16T00:39:38.308Z,7.22
2023-12-16T00:40:38.294Z,7.23
2023-12-16T00:41:38.277Z,7.20
2023-12-16T00:42:38.271Z,7.19
2023-12-16T00:43:38.289Z,7.16
2023-12-16T00:44:38.228Z,7.17
2023-12-16T00:45:38.276Z,7.19
2023-12-16T00:46:38.248Z,7.19
2023-12-16T00:47:38.680Z,7.20
2023-12-16T00:48:38.264Z,7.17
2023-12-16T00:49:38.220Z,7.19
2023-12-16T00:50:38.164Z,7.17
2023-12-16T00:51:38.214Z,7.19
2023-12-16T00:52:38.150Z,7.20
2023-12-16T00:53:38.160Z,7.20
2023-12-16T00:54:38.114Z,7.16
2023-12-16T00:55:38.127Z,7.17
2023-12-16T00:56:38.096Z,7.19
2023-12-16T00:57:38.300Z,7.20
2023-12-16T00:58:38.075Z,7.23
2023-12-16T00:59:38.070Z,7.22
2023-12-16T01:00:38.066Z,7.23
2023-12-16T01:01:38.113Z,7.23
2023-12-16T01:02:38.027Z,7.23
2023-12-16T01:03:38.120Z,7.24
2023-12-16T01:04:38.006Z,7.27
2023-12-16T01:05:37.992Z,7.24
2023-12-16T01:06:37.973Z,7.26
2023-12-16T01:07:38.364Z,7.24
2023-12-16T01:08:37.952Z,7.26
2023-12-16T01:09:37.950Z,7.32
2023-12-16T01:10:37.933Z,7.32
2023-12-16T01:11:37.906Z,7.31
2023-12-16T01:12:37.895Z,7.29
2023-12-16T01:13:37.922Z,7.31
2023-12-16T01:14:37.855Z,7.31
2023-12-16T01:15:37.969Z,7.31
2023-12-16T01:16:37.856Z,7.27
2023-12-16T01:17:38.289Z,7.27
2023-12-16T01:18:37.933Z,7.26
2023-12-16T01:19:37.836Z,7.23
2023-12-16T01:20:37.820Z,7.23
2023-12-16T01:21:37.816Z,7.26
2023-12-16T01:22:37.794Z,7.26
2023-12-16T01:23:37.722Z,7.27
2023-12-16T01:24:37.725Z,7.26
2023-12-16T01:25:37.783Z,7.23
2023-12-16T01:26:37.758Z,7.24
2023-12-16T01:27:38.199Z,7.27
2023-12-16T01:28:37.704Z,7.26
2023-12-16T01:29:37.818Z,7.27
2023-12-16T01:30:37.744Z,7.26
2023-12-16T01:31:37.766Z,7.27
2023-12-16T01:32:37.728Z,7.26
2023-12-16T01:33:37.812Z,7.29
2023-12-16T01:34:37.764Z,7.27
2023-12-16T01:35:37.667Z,7.24
2023-12-16T01:36:37.567Z,7.26
2023-12-16T01:37:37.870Z,7.23
2023-12-16T01:38:37.789Z,7.22
2023-12-16T01:39:37.591Z,7.17
2023-12-16T01:40:37.643Z,7.17
2023-12-16T01:41:37.575Z,7.15
2023-12-16T01:42:37.548Z,7.12
2023-12-16T01:43:37.530Z,7.09
2023-12-16T01:44:37.498Z,7.09
2023-12-16T01:45:37.464Z,7.08
2023-12-16T01:46:37.540Z,7.05
2023-12-16T01:47:37.778Z,7.07
2023-12-16T01:48:37.638Z,7.07
2023-12-16T01:49:37.504Z,7.07
2023-12-16T01:50:37.434Z,7.05
2023-12-16T01:51:37.385Z,7.04
2023-12-16T01:52:37.361Z,6.99
2023-12-16T01:53:37.398Z,6.99
2023-12-16T01:54:37.442Z,6.97
2023-12-16T01:55:37.397Z,6.91
2023-12-16T01:56:37.313Z,6.91
2023-12-16T01:57:37.512Z,6.89
2023-12-16T01:58:37.291Z,6.89
2023-12-16T01:59:37.283Z,6.87
2023-12-16T02:00:37.429Z,6.90
2023-12-16T02:01:37.427Z,6.89
2023-12-16T02:02:37.265Z,6.84
2023-12-16T02:03:37.249Z,6.81
2023-12-16T02:04:37.261Z,6.83
2023-12-16T02:05:37.242Z,6.84
2023-12-16T02:06:37.254Z,6.87
2023-12-16T02:07:37.578Z,6.89
2023-12-16T02:08:37.146Z,6.89
2023-12-16T02:09:37.254Z,6.90
2023-12-16T02:10:37.127Z,6.91
2023-12-16T02:11:37.124Z,6.90
2023-12-16T02:12:37.105Z,6.87
2023-12-16T02:13:37.124Z,6.84
2023-12-16T02:14:37.237Z,6.86
2023-12-16T02:15:37.101Z,6.86
2023-12-16T02:16:37.071Z,6.87
2023-12-16T02:17:37.667Z,6.83
2023-12-16T02:18:37.118Z,6.80
2023-12-16T02:19:37.120Z,6.77
2023-12-16T02:20:37.026Z,6.76
2023-12-16T02:21:37.023Z,6.79
2023-12-16T02:22:37.045Z,6.81
2023-12-16T02:23:36.988Z,6.83
2023-12-16T02:24:37.027Z,6.86
2023-12-16T02:25:36.969Z,6.86
2023-12-16T02:26:36.933Z,6.86
2023-12-16T02:27:37.233Z,6.86
2023-12-16T02:28:36.920Z,6.91
2023-12-16T02:29:36.941Z,6.95
2023-12-16T02:30:36.876Z,6.95
2023-12-16T02:31:36.963Z,6.94
2023-12-16T02:32:36.917Z,6.98
2023-12-16T02:33:36.919Z,6.99
2023-12-16T02:34:36.846Z,6.98
2023-12-16T02:35:36.906Z,6.98
2023-12-16T02:36:36.946Z,6.97
2023-12-16T02:37:37.077Z,6.95
2023-12-16T02:38:36.799Z,6.94
2023-12-16T02:39:36.795Z,6.95
2023-12-16T02:40:36.782Z,6.95
2023-12-16T02:41:36.769Z,6.95
2023-12-16T02:42:36.766Z,6.98
2023-12-16T02:43:36.716Z,7.02
2023-12-16T02:44:36.721Z,7.02
2023-12-16T02:45:36.747Z,7.02
2023-12-16T02:46:36.699Z,7.02
2023-12-16T02:47:37.063Z,7.02
2023-12-16T02:48:36.684Z,7.07
2023-12-16T02:49:36.884Z,7.12
2023-12-16T02:50:36.622Z,7.12
2023-12-16T02:51:36.627Z,7.12
2023-12-16T02:52:36.749Z,7.08
2023-12-16T02:53:36.577Z,7.09
2023-12-16T02:54:36.580Z,7.12
2023-12-16T02:55:36.610Z,7.08
2023-12-16T02:56:36.592Z,7.09
2023-12-16T02:57:36.873Z,7.13
2023-12-16T02:58:36.556Z,7.09
2023-12-16T02:59:36.591Z,7.12
2023-12-16T03:00:36.540Z,7.13
2023-12-16T03:01:36.583Z,7.13
2023-12-16T03:02:36.517Z,7.09
2023-12-16T03:03:36.556Z,7.09
2023-12-16T03:04:36.483Z,7.08
2023-12-16T03:05:36.490Z,7.07
2023-12-16T03:06:36.448Z,7.04
2023-12-16T03:07:36.552Z,7.05
2023-12-16T03:08:36.450Z,7.04
2023-12-16T03:09:36.422Z,7.04
2023-12-16T03:10:36.362Z,7.04
2023-12-16T03:11:36.354Z,7.01
2023-12-16T03:12:36.370Z,7.02
2023-12-16T03:13:36.372Z,7.04
2023-12-16T03:14:36.337Z,7.04
2023-12-16T03:15:36.337Z,7.04
2023-12-16T03:16:36.307Z,7.05
2023-12-16T03:17:36.778Z,7.07
2023-12-16T03:18:36.303Z,7.07
2023-12-16T03:19:36.457Z,7.08
2023-12-16T03:20:36.254Z,7.08
2023-12-16T03:21:36.223Z,7.07
2023-12-16T03:22:36.268Z,7.05
2023-12-16T03:23:36.253Z,7.04
2023-12-16T03:24:36.201Z,7.07
2023-12-16T03:25:36.291Z,7.07
2023-12-16T03:26:36.218Z,7.08
2023-12-16T03:27:36.364Z,7.08
2023-12-16T03:28:36.138Z,7.07
2023-12-16T03:29:36.167Z,7.08
2023-12-16T03:30:36.162Z,7.09
2023-12-16T03:31:36.158Z,7.09
2023-12-16T03:32:36.168Z,7.08
2023-12-16T03:33:36.256Z,7.07
2023-12-16T03:34:36.164Z,7.07
2023-12-16T03:35:36.074Z,7.05
2023-12-16T03:36:36.073Z,7.05
2023-12-16T03:37:36.215Z,7.02
2023-12-16T03:38:36.076Z,7.02
2023-12-16T03:39:36.004Z,7.01
2023-12-16T03:40:36.140Z,6.98
2023-12-16T03:41:35.971Z,6.98
2023-12-16T03:42:36.039Z,6.97
2023-12-16T03:43:35.975Z,6.97
2023-12-16T03:44:35.961Z,6.94
2023-12-16T03:45:35.960Z,6.91
2023-12-16T03:46:35.940Z,6.94
2023-12-16T03:47:36.169Z,6.89
2023-12-16T03:48:36.102Z,6.86
2023-12-16T03:49:35.988Z,6.84
2023-12-16T03:50:35.856Z,6.83
2023-12-16T03:51:35.857Z,6.81
2023-12-16T03:52:35.836Z,6.83
2023-12-16T03:53:35.814Z,6.87
2023-12-16T03:54:35.928Z,6.91
2023-12-16T03:55:35.797Z,6.97
2023-12-16T03:56:35.805Z,6.95
2023-12-16T03:57:36.034Z,6.98
2023-12-16T03:58:35.846Z,7.01
2023-12-16T03:59:35.771Z,7.05
2023-12-16T04:00:35.779Z,7.07
2023-12-16T04:01:35.786Z,7.08
2023-12-16T04:02:35.769Z,7.07
2023-12-16T04:03:35.694Z,7.09
2023-12-16T04:04:35.708Z,7.12
2023-12-16T04:05:35.734Z,7.13
2023-12-16T04:06:35.679Z,7.15
2023-12-16T04:07:35.793Z,7.12
2023-12-16T04:08:35.656Z,7.08
2023-12-16T04:09:35.696Z,7.07
2023-12-16T04:10:35.665Z,7.07
2023-12-16T04:11:35.631Z,7.08
2023-12-16T04:12:35.595Z,7.08
2023-12-16T04:13:35.578Z,7.09
2023-12-16T04:14:35.575Z,7.08
2023-12-16T04:15:35.551Z,7.05
2023-12-16T04:16:35.557Z,7.08
2023-12-16T04:17:35.581Z,7.08
2023-12-16T04:18:35.540Z,7.05
2023-12-16T04:19:35.536Z,7.04
2023-12-16T04:20:35.510Z,7.01
2023-12-16T04:21:35.543Z,6.98
2023-12-16T04:22:35.460Z,6.95
2023-12-16T04:23:35.438Z,6.97
2023-12-16T04:24:35.463Z,6.97
2023-12-16T04:25:35.507Z,6.95
2023-12-16T04:26:35.418Z,6.95
2023-12-16T04:27:35.412Z,6.95
2023-12-16T04:28:35.445Z,6.95
2023-12-16T04:29:35.390Z,6.91
2023-12-16T04:30:35.456Z,6.91
2023-12-16T04:31:35.346Z,6.91
2023-12-16T04:32:35.362Z,6.89
2023-12-16T04:33:35.335Z,6.89
2023-12-16T04:34:35.352Z,6.84
2023-12-16T04:35:35.282Z,6.89
2023-12-16T04:36:35.281Z,6.90
2023-12-16T04:37:35.292Z,6.89
2023-12-16T04:38:35.266Z,6.87
2023-12-16T04:39:35.250Z,6.84
2023-12-16T04:40:35.321Z,6.86
2023-12-16T04:41:35.357Z,6.81
2023-12-16T04:42:35.193Z,6.81
2023-12-16T04:43:35.173Z,6.81
2023-12-16T04:44:35.214Z,6.79
2023-12-16T04:45:35.174Z,6.79
2023-12-16T04:46:35.141Z,6.79
2023-12-16T04:47:35.162Z,6.80
2023-12-16T04:48:35.255Z,6.79
2023-12-16T04:49:35.187Z,6.80
2023-12-16T04:50:35.162Z,6.81
2023-12-16T04:51:35.076Z,6.81
2023-12-16T04:52:35.085Z,6.81
2023-12-16T04:53:35.062Z,6.86
2023-12-16T04:54:35.044Z,6.89
2023-12-16T04:55:35.034Z,6.90
2023-12-16T04:56:35.023Z,6.90
2023-12-16T04:57:35.107Z,6.90
2023-12-16T04:58:35.028Z,6.91
2023-12-16T04:59:35.004Z,6.90
2023-12-16T05:00:34.957Z,6.91
2023-12-16T05:01:35.077Z,6.94
2023-12-16T05:02:34.961Z,6.91
2023-12-16T05:03:34.971Z,6.94
2023-12-16T05:04:34.978Z,6.91
2023-12-16T05:05:34.988Z,6.89
2023-12-16T05:06:34.916Z,6.90
2023-12-16T05:07:34.940Z,6.91
2023-12-16T05:08:34.866Z,6.89
2023-12-16T05:09:34.887Z,6.87
2023-12-16T05:10:34.881Z,6.84
2023-12-16T05:11:34.891Z,6.87
2023-12-16T05:12:36.358Z,6.86
2023-12-16T05:13:34.827Z,6.86
2023-12-16T05:14:34.826Z,6.86
2023-12-16T05:15:34.793Z,6.86
2023-12-16T05:16:34.825Z,6.83
2023-12-16T05:17:34.794Z,6.84
2023-12-16T05:18:34.827Z,6.86
2023-12-16T05:19:34.813Z,6.84
2023-12-16T05:20:34.733Z,6.84
2023-12-16T05:21:34.717Z,6.83
2023-12-16T05:22:34.947Z,6.83
2023-12-16T05:23:34.674Z,6.84
2023-12-16T05:24:34.683Z,6.83
2023-12-16T05:25:34.716Z,6.80
2023-12-16T05:26:34.677Z,6.79
2023-12-16T05:27:34.607Z,6.79
2023-12-16T05:28:34.632Z,6.79
2023-12-16T05:29:34.616Z,6.77
2023-12-16T05:30:34.664Z,6.76
2023-12-16T05:31:34.606Z,6.73
2023-12-16T05:32:34.651Z,6.72
2023-12-16T05:33:34.634Z,6.71
2023-12-16T05:34:34.604Z,6.69
2023-12-16T05:35:34.607Z,6.69
2023-12-16T05:36:34.507Z,6.68
2023-12-16T05:37:34.531Z,6.66
2023-12-16T05:38:34.563Z,6.66
2023-12-16T05:39:34.566Z,6.65
2023-12-16T05:40:34.548Z,6.63
2023-12-16T05:41:34.497Z,6.63
2023-12-16T05:42:34.457Z,6.62
2023-12-16T05:43:34.413Z,6.61
2023-12-16T05:44:34.498Z,6.61
2023-12-16T05:45:34.402Z,6.62
2023-12-16T05:46:34.403Z,6.63
2023-12-16T05:47:34.384Z,6.65
2023-12-16T05:48:34.411Z,6.63
2023-12-16T05:49:34.491Z,6.65
2023-12-16T05:50:34.345Z,6.63
2023-12-16T05:51:34.314Z,6.62
2023-12-16T05:52:34.326Z,6.62
2023-12-16T05:53:34.371Z,6.65
2023-12-16T05:54:34.284Z,6.63
2023-12-16T05:55:34.406Z,6.63
2023-12-16T05:56:34.350Z,6.62
2023-12-16T05:57:34.291Z,6.61
2023-12-16T05:58:34.638Z,6.59
2023-12-16T05:59:34.222Z,6.59
2023-12-16T06:00:34.243Z,6.58
2023-12-16T06:01:34.423Z,6.61
2023-12-16T06:02:34.248Z,6.61
2023-12-16T06:03:34.155Z,6.59
2023-12-16T06:04:34.191Z,6.61
2023-12-16T06:05:34.145Z,6.61
2023-12-16T06:06:34.187Z,6.59
2023-12-16T06:07:34.144Z,6.56
2023-12-16T06:08:34.095Z,6.56
2023-12-16T06:09:34.149Z,6.54
2023-12-16T06:10:34.257Z,6.56
2023-12-16T06:11:34.050Z,6.53
2023-12-16T06:12:34.101Z,6.53
2023-12-16T06:13:34.131Z,6.50
2023-12-16T06:14:34.042Z,6.51
2023-12-16T06:15:34.048Z,6.50
2023-12-16T06:16:34.093Z,6.48
2023-12-16T06:17:34.215Z,6.48
2023-12-16T06:18:34.075Z,6.47
2023-12-16T06:19:34.093Z,6.44
2023-12-16T06:20:33.957Z,6.43
2023-12-16T06:21:33.950Z,6.43
2023-12-16T06:22:34.187Z,6.44
2023-12-16T06:23:33.964Z,6.43
2023-12-16T06:24:33.923Z,6.43
2023-12-16T06:25:33.984Z,6.43
2023-12-16T06:26:33.887Z,6.41
2023-12-16T06:27:33.864Z,6.40
2023-12-16T06:28:33.835Z,6.40
2023-12-16T06:29:33.979Z,6.43
2023-12-16T06:30:33.882Z,6.41
2023-12-16T06:31:33.894Z,6.41
2023-12-16T06:32:33.970Z,6.40
2023-12-16T06:33:33.837Z,6.40
2023-12-16T06:34:33.875Z,6.40
2023-12-16T06:35:33.817Z,6.38
2023-12-16T06:36:33.723Z,6.40
2023-12-16T06:37:33.735Z,6.38
2023-12-16T06:38:33.734Z,6.40
2023-12-16T06:39:33.682Z,6.38
2023-12-16T06:40:33.747Z,6.36
2023-12-16T06:41:33.657Z,6.36
2023-12-16T06:42:33.665Z,6.35
2023-12-16T06:43:33.665Z,6.35
2023-12-16T06:44:33.631Z,6.35
2023-12-16T06:45:33.648Z,6.32
2023-12-16T06:46:33.707Z,6.35
2023-12-16T06:47:33.632Z,6.33
2023-12-16T06:48:33.708Z,6.35
2023-12-16T06:49:33.676Z,6.35
2023-12-16T06:50:33.596Z,6.35
2023-12-16T06:51:33.561Z,6.36
2023-12-16T06:52:33.604Z,6.36
2023-12-16T06:53:33.546Z,6.38
2023-12-16T06:54:33.512Z,6.41
2023-12-16T06:55:33.604Z,6.43
2023-12-16T06:56:33.479Z,6.46
2023-12-16T06:57:33.499Z,6.46
2023-12-16T06:58:33.557Z,6.46
2023-12-16T06:59:33.447Z,6.47
2023-12-16T07:00:33.423Z,6.46
2023-12-16T07:01:33.504Z,6.46
2023-12-16T07:02:33.409Z,6.48
2023-12-16T07:03:33.464Z,6.50
2023-12-16T07:04:33.503Z,6.53
2023-12-16T07:05:33.362Z,6.56
2023-12-16T07:06:33.340Z,6.53
2023-12-16T07:07:33.395Z,6.54
2023-12-16T07:08:33.374Z,6.53
2023-12-16T07:09:33.364Z,6.56
2023-12-16T07:10:33.317Z,6.56
2023-12-16T07:11:33.304Z,6.59
2023-12-16T07:12:33.281Z,6.56
2023-12-16T07:13:33.360Z,6.56
2023-12-16T07:14:33.250Z,6.58
2023-12-16T07:15:33.258Z,6.56
2023-12-16T07:16:33.324Z,6.58
2023-12-16T07:17:33.229Z,6.62
2023-12-16T07:18:33.259Z,6.66
2023-12-16T07:19:33.339Z,6.68
2023-12-16T07:20:33.237Z,6.69
2023-12-16T07:21:33.178Z,6.68
2023-12-16T07:22:33.208Z,6.68
2023-12-16T07:23:33.145Z,6.69
2023-12-16T07:24:33.123Z,6.68
2023-12-16T07:25:33.155Z,6.69
2023-12-16T07:26:33.090Z,6.65
2023-12-16T07:27:33.087Z,6.66
2023-12-16T07:28:33.143Z,6.66
2023-12-16T07:29:33.044Z,6.69
2023-12-16T07:30:33.068Z,6.73
2023-12-16T07:31:33.152Z,6.73
2023-12-16T07:32:33.167Z,6.77
2023-12-16T07:33:33.094Z,6.76
2023-12-16T07:34:33.160Z,6.77
2023-12-16T07:35:33.011Z,6.77
2023-12-16T07:36:32.973Z,6.80
2023-12-16T07:37:33.176Z,6.80
2023-12-16T07:38:32.967Z,6.81
2023-12-16T07:39:32.987Z,6.83
2023-12-16T07:40:33.080Z,6.79
2023-12-16T07:41:32.930Z,6.80
2023-12-16T07:42:32.969Z,6.80
2023-12-16T07:43:32.987Z,6.80
2023-12-16T07:44:32.885Z,6.80
2023-12-16T07:45:32.847Z,6.80
2023-12-16T07:46:32.922Z,6.79
2023-12-16T07:47:32.911Z,6.79
2023-12-16T07:48:32.978Z,6.80
2023-12-16T07:49:32.840Z,6.83
2023-12-16T07:50:32.782Z,6.84
2023-12-16T07:51:32.812Z,6.84
2023-12-16T07:52:32.883Z,6.86
2023-12-16T07:53:32.796Z,6.86
2023-12-16T07:54:32.859Z,6.87
2023-12-16T07:55:32.825Z,6.87
2023-12-16T07:56:32.798Z,6.86
2023-12-16T07:57:32.769Z,6.84
2023-12-16T07:58:32.776Z,6.81
2023-12-16T07:59:32.733Z,6.76
2023-12-16T08:00:32.774Z,6.73
2023-12-16T08:01:32.741Z,6.72
2023-12-16T08:02:32.647Z,6.72
2023-12-16T08:03:32.644Z,6.72
2023-12-16T08:04:32.633Z,6.69
2023-12-16T08:05:32.663Z,6.68
2023-12-16T08:06:34.390Z,6.65
2023-12-16T08:07:32.801Z,6.66
2023-12-16T08:08:32.598Z,6.63
2023-12-16T08:09:32.553Z,6.62
2023-12-16T08:10:32.679Z,6.62
2023-12-16T08:11:32.541Z,6.59
2023-12-16T08:12:32.513Z,6.56
2023-12-16T08:13:32.597Z,6.53
2023-12-16T08:14:32.498Z,6.56
2023-12-16T08:15:32.522Z,6.59
2023-12-16T08:16:32.617Z,6.59
2023-12-16T08:17:32.548Z,6.58
2023-12-16T08:18:32.605Z,6.53
2023-12-16T08:19:32.504Z,6.53
2023-12-16T08:20:32.391Z,6.51
2023-12-16T08:21:32.383Z,6.50
2023-12-16T08:22:32.462Z,6.47
2023-12-16T08:23:32.375Z,6.50
2023-12-16T08:24:32.366Z,6.56
2023-12-16T08:25:32.558Z,6.56
2023-12-16T08:26:32.353Z,6.54
2023-12-16T08:27:32.294Z,6.56
2023-12-16T08:28:32.436Z,6.51
2023-12-16T08:29:32.265Z,6.50
2023-12-16T08:30:32.340Z,6.51
2023-12-16T08:31:32.295Z,6.53
2023-12-16T08:32:32.316Z,6.56
2023-12-16T08:33:32.343Z,6.59
2023-12-16T08:34:32.334Z,6.61
2023-12-16T08:35:32.330Z,6.56
2023-12-16T08:36:32.203Z,6.56
2023-12-16T08:37:32.295Z,6.62
2023-12-16T08:38:32.200Z,6.65
2023-12-16T08:39:32.251Z,6.65
2023-12-16T08:40:32.206Z,6.68
2023-12-16T08:41:32.148Z,6.66
2023-12-16T08:42:32.103Z,6.66
2023-12-16T08:43:32.187Z,6.68
2023-12-16T08:44:32.106Z,6.68
2023-12-16T08:45:32.168Z,6.72
2023-12-16T08:46:32.117Z,6.76
2023-12-16T08:47:32.158Z,6.79
2023-12-16T08:48:32.081Z,6.83
2023-12-16T08:49:32.098Z,6.86
2023-12-16T08:50:32.034Z,6.86
2023-12-16T08:51:32.023Z,6.86
2023-12-16T08:52:32.100Z,6.90
2023-12-16T08:53:31.994Z,6.94
2023-12-16T08:54:32.006Z,6.97
2023-12-16T08:55:32.101Z,7.01
2023-12-16T08:56:31.944Z,7.07
2023-12-16T08:57:31.950Z,7.09
2023-12-16T08:58:32.003Z,7.15
2023-12-16T08:59:31.920Z,7.20
2023-12-16T09:00:31.892Z,7.23
2023-12-16T09:01:31.999Z,7.32
2023-12-16T09:02:31.921Z,7.37
2023-12-16T09:03:31.951Z,7.45
2023-12-16T09:04:31.888Z,7.55
2023-12-16T09:05:31.907Z,7.63
2023-12-16T09:06:31.816Z,7.74
2023-12-16T09:07:31.864Z,7.81
2023-12-16T09:08:31.827Z,7.89
2023-12-16T09:09:31.844Z,7.96
2023-12-16T09:10:31.856Z,8.03
2023-12-16T09:11:31.745Z,8.08
2023-12-16T09:12:31.725Z,8.12
2023-12-16T09:13:31.851Z,8.15
2023-12-16T09:14:31.749Z,8.20
2023-12-16T09:15:31.741Z,8.20
2023-12-16T09:16:31.731Z,8.25
2023-12-16T09:17:31.748Z,8.22
2023-12-16T09:18:31.796Z,8.26
2023-12-16T09:19:31.794Z,8.26
2023-12-16T09:20:31.630Z,8.28
2023-12-16T09:21:31.611Z,8.25
2023-12-16T09:22:32.820Z,8.22
2023-12-16T09:23:31.831Z,8.21
2023-12-16T09:24:31.714Z,8.20
2023-12-16T09:25:31.649Z,8.20
2023-12-16T09:26:31.573Z,8.25
2023-12-16T09:27:31.540Z,8.22
2023-12-16T09:28:31.632Z,8.25
2023-12-16T09:29:31.556Z,8.26
2023-12-16T09:30:31.635Z,8.25
2023-12-16T09:31:31.493Z,8.28
2023-12-16T09:32:31.583Z,8.28
2023-12-16T09:33:31.583Z,8.28
2023-12-16T09:34:31.507Z,8.32
2023-12-16T09:35:31.454Z,8.30
2023-12-16T09:36:31.440Z,8.35
2023-12-16T09:37:31.769Z,8.36
2023-12-16T09:38:31.429Z,8.36
2023-12-16T09:39:31.409Z,8.44
2023-12-16T09:40:31.458Z,8.40
2023-12-16T09:41:31.427Z,8.45
2023-12-16T09:42:31.355Z,8.50
2023-12-16T09:43:31.383Z,8.48
2023-12-16T09:44:31.329Z,8.53
2023-12-16T09:45:31.305Z,8.58
2023-12-16T09:46:31.624Z,8.62
2023-12-16T09:47:31.450Z,8.63
2023-12-16T09:48:31.353Z,8.63
2023-12-16T09:49:31.342Z,8.65
2023-12-16T09:50:31.336Z,8.68
2023-12-16T09:51:31.294Z,8.66
2023-12-16T09:52:31.438Z,8.69
2023-12-16T09:53:31.308Z,8.68
2023-12-16T09:54:31.258Z,8.68
2023-12-16T09:55:31.260Z,8.68
2023-12-16T09:56:31.185Z,8.71
2023-12-16T09:57:31.143Z,8.71
2023-12-16T09:58:31.291Z,8.62
2023-12-16T09:59:31.126Z,8.65
2023-12-16T10:00:31.142Z,8.63
2023-12-16T10:01:31.522Z,8.65
2023-12-16T10:02:31.176Z,8.63
2023-12-16T10:03:31.172Z,8.60
2023-12-16T10:04:31.108Z,8.63
2023-12-16T10:05:31.099Z,8.63
2023-12-16T10:06:31.059Z,8.63
2023-12-16T10:07:31.058Z,8.63
2023-12-16T10:08:31.082Z,8.65
2023-12-16T10:09:31.044Z,8.68
2023-12-16T10:10:31.109Z,8.69
2023-12-16T10:11:31.001Z,8.69
2023-12-16T10:12:31.010Z,8.71
2023-12-16T10:13:31.032Z,8.73
2023-12-16T10:14:30.955Z,8.73
2023-12-16T10:15:30.974Z,8.76
2023-12-16T10:16:31.010Z,8.79
2023-12-16T10:17:31.443Z,8.76
2023-12-16T10:18:30.946Z,8.79
2023-12-16T10:19:30.904Z,8.83
2023-12-16T10:20:30.872Z,8.83
2023-12-16T10:21:30.958Z,8.84
2023-12-16T10:22:30.893Z,8.84
2023-12-16T10:23:30.832Z,8.90
2023-12-16T10:24:30.817Z,8.91
2023-12-16T10:25:30.908Z,8.90
2023-12-16T10:26:30.807Z,8.86
2023-12-16T10:27:30.765Z,8.83
2023-12-16T10:28:30.840Z,8.84
2023-12-16T10:29:30.779Z,8.83
2023-12-16T10:30:30.803Z,8.86
2023-12-16T10:31:30.775Z,8.87
2023-12-16T10:32:30.838Z,8.88
2023-12-16T10:33:30.805Z,8.91
2023-12-16T10:34:30.795Z,8.94
2023-12-16T10:35:30.667Z,8.94
2023-12-16T10:36:30.773Z,8.99
2023-12-16T10:37:30.724Z,9.02
2023-12-16T10:38:30.663Z,8.97
2023-12-16T10:39:30.621Z,8.94
2023-12-16T10:40:30.725Z,8.97
2023-12-16T10:41:30.608Z,8.96
2023-12-16T10:42:30.678Z,9.02
2023-12-16T10:43:30.690Z,9.02
2023-12-16T10:44:30.537Z,9.01
2023-12-16T10:45:30.555Z,9.04
2023-12-16T10:46:30.577Z,9.04
2023-12-16T10:47:30.689Z,9.06
2023-12-16T10:48:30.678Z,9.05
2023-12-16T10:49:30.621Z,9.01
2023-12-16T10:50:30.466Z,9.02
2023-12-16T10:51:30.483Z,9.02
2023-12-16T10:52:30.519Z,9.06
2023-12-16T10:53:30.630Z,9.09
2023-12-16T10:54:30.478Z,9.10
2023-12-16T10:55:30.541Z,9.06
2023-12-16T10:56:30.451Z,9.05
2023-12-16T10:57:30.397Z,9.09
2023-12-16T10:58:30.414Z,9.06
2023-12-16T10:59:30.398Z,9.05
2023-12-16T11:00:30.324Z,9.04
2023-12-16T11:01:30.659Z,9.02
2023-12-16T11:02:30.337Z,9.05
2023-12-16T11:03:30.379Z,9.06
2023-12-16T11:04:30.398Z,9.02
2023-12-16T11:05:30.325Z,9.05
2023-12-16T11:06:30.306Z,9.06
2023-12-16T11:07:30.298Z,9.05
2023-12-16T11:08:30.278Z,9.09
2023-12-16T11:09:30.318Z,9.04
2023-12-16T11:10:30.237Z,9.04
2023-12-16T11:11:30.240Z,9.06
2023-12-16T11:12:30.217Z,9.09
2023-12-16T11:13:30.249Z,9.05
2023-12-16T11:14:30.201Z,9.05
2023-12-16T11:15:30.163Z,9.06
2023-12-16T11:16:30.280Z,9.06
2023-12-16T11:17:30.265Z,9.09
2023-12-16T11:18:30.157Z,9.09
2023-12-16T11:19:30.282Z,9.15
2023-12-16T11:20:30.113Z,9.13
2023-12-16T11:21:30.102Z,9.13
2023-12-16T11:22:30.115Z,9.13
2023-12-16T11:23:30.125Z,9.15
2023-12-16T11:24:30.080Z,9.18
2023-12-16T11:25:30.103Z,9.23
2023-12-16T11:26:30.057Z,9.24
2023-12-16T11:27:30.045Z,9.28
2023-12-16T11:28:30.066Z,9.28
2023-12-16T11:29:29.971Z,9.31
2023-12-16T11:30:30.349Z,9.28
2023-12-16T11:31:29.985Z,9.28
2023-12-16T11:32:29.979Z,9.28
2023-12-16T11:33:29.910Z,9.28
2023-12-16T11:34:30.022Z,9.27
2023-12-16T11:35:29.913Z,9.30
2023-12-16T11:36:29.894Z,9.32
2023-12-16T11:37:29.995Z,9.31
2023-12-16T11:38:30.030Z,9.34
2023-12-16T11:39:29.832Z,9.39
2023-12-16T11:40:29.860Z,9.45
2023-12-16T11:41:29.870Z,9.50
2023-12-16T11:42:29.854Z,9.48
2023-12-16T11:43:29.872Z,9.42
2023-12-16T11:45:40.942Z,9.40
2023-12-16T11:46:41.062Z,9.45
2023-12-16T11:47:41.036Z,9.48
2023-12-16T11:48:40.894Z,9.45
2023-12-16T11:49:40.924Z,9.42
2023-12-16T11:50:40.892Z,9.42
2023-12-16T11:51:40.830Z,9.43
2023-12-16T11:52:40.999Z,9.45
2023-12-16T11:53:40.767Z,9.45
2023-12-16T11:54:40.742Z,9.43
2023-12-16T11:55:40.879Z,9.43
2023-12-16T11:56:40.744Z,9.45
2023-12-16T11:57:40.734Z,9.45
2023-12-16T11:58:40.843Z,9.46
2023-12-16T11:59:40.686Z,9.48
2023-12-16T12:00:40.732Z,9.45
2023-12-16T12:01:40.751Z,9.45
2023-12-16T12:02:40.913Z,9.42
2023-12-16T12:03:40.714Z,9.40
2023-12-16T12:04:40.637Z,9.39
2023-12-16T12:05:40.787Z,9.40
2023-12-16T12:06:40.622Z,9.39
2023-12-16T12:07:40.806Z,9.38
2023-12-16T12:08:40.622Z,9.34
2023-12-16T12:09:40.602Z,9.34
2023-12-16T12:10:40.706Z,9.31
2023-12-16T12:11:40.527Z,9.30
2023-12-16T12:12:40.817Z,9.30
2023-12-16T12:13:40.520Z,9.30
2023-12-16T12:14:40.609Z,9.31
2023-12-16T12:15:40.491Z,9.32
2023-12-16T12:16:40.518Z,9.35
2023-12-16T12:17:40.620Z,9.34
2023-12-16T12:18:40.526Z,9.32
2023-12-16T12:19:40.493Z,9.31
2023-12-16T12:20:40.452Z,9.31
2023-12-16T12:21:40.382Z,9.31
2023-12-16T12:22:40.687Z,9.34
2023-12-16T12:23:40.402Z,9.34
2023-12-16T12:24:40.365Z,9.32
2023-12-16T12:25:40.394Z,9.30
2023-12-16T12:26:40.400Z,9.30
2023-12-16T12:27:40.665Z,9.31
2023-12-16T12:28:40.329Z,9.28
2023-12-16T12:29:40.300Z,9.31
2023-12-16T12:30:40.355Z,9.28
2023-12-16T12:31:40.333Z,9.28
2023-12-16T12:32:40.282Z,9.28
2023-12-16T12:33:40.438Z,9.28
2023-12-16T12:34:40.244Z,9.25
2023-12-16T12:35:40.258Z,9.28
2023-12-16T12:36:40.167Z,9.27
2023-12-16T12:37:40.541Z,9.27
2023-12-16T12:38:40.196Z,9.27
2023-12-16T12:39:40.169Z,9.28
2023-12-16T12:40:40.197Z,9.28
2023-12-16T12:41:40.213Z,9.30
2023-12-16T12:42:40.130Z,9.30
2023-12-16T12:43:40.168Z,9.30
2023-12-16T12:44:40.117Z,9.31
2023-12-16T12:45:40.078Z,9.31
2023-12-16T12:46:40.046Z,9.34
2023-12-16T12:47:40.284Z,9.34
2023-12-16T12:48:40.172Z,9.34
2023-12-16T12:49:40.025Z,9.35
2023-12-16T12:50:40.018Z,9.35
2023-12-16T12:51:40.041Z,9.35
2023-12-16T12:53:17.394Z,9.34
2023-12-16T12:53:40.995Z,9.34
2023-12-16T12:54:39.990Z,9.32
2023-12-16T12:55:39.985Z,9.32
2023-12-16T12:56:39.999Z,9.34
2023-12-16T12:57:40.307Z,9.34
2023-12-16T12:58:39.896Z,9.34
2023-12-16T12:59:59.622Z,9.32
2023-12-16T13:00:40.956Z,9.34
2023-12-16T13:01:39.919Z,9.34
2023-12-16T13:02:39.860Z,9.34
2023-12-16T13:03:39.878Z,9.38
2023-12-16T13:04:47.399Z,9.35
2023-12-16T13:05:40.864Z,9.35
2023-12-16T13:06:39.805Z,9.38
2023-12-16T13:07:40.060Z,9.38
2023-12-16T13:08:39.865Z,9.39
2023-12-16T13:09:39.750Z,9.39
2023-12-16T13:10:39.717Z,9.39
2023-12-16T13:11:39.789Z,9.39
2023-12-16T13:12:39.736Z,9.40
2023-12-16T13:13:39.726Z,9.42
2023-12-16T13:14:39.762Z,9.43
2023-12-16T13:15:53.761Z,9.43
2023-12-16T13:16:40.683Z,9.48
2023-12-16T13:17:40.106Z,9.43
2023-12-16T13:18:39.728Z,9.46
2023-12-16T13:19:39.745Z,9.48